Time;durP1;ratioP1;P1;durP2;ratioP2;P2;SDS_P1;SDS_P2;PMS_P1;PMS_P2;Temp;Humidity;BMP_temperature;BMP_pressure;BME280_temperature;BME280_humidity;BME280_pressure;Samples;Min_cycle;Max_cycle;Signal;HPM_P1;HPM_P2
2022/02/25 00:02:11;;;;;;;6.97;0.80;;;2.20;99.90;;;;;;4957271;28;20041;-83
2022/02/25 00:04:59;;;;;;;5.00;0.90;;;2.20;99.90;;;;;;4955719;28;20450;-87
2022/02/25 00:07:25;;;;;;;5.70;1.23;;;2.20;99.90;;;;;;4935704;28;20072;-83
2022/02/25 00:09:52;;;;;;;5.77;0.90;;;2.10;99.90;;;;;;4935989;28;20042;-85
2022/02/25 00:12:23;;;;;;;4.93;0.60;;;2.10;99.90;;;;;;4925507;28;20061;-89
2022/02/25 00:14:49;;;;;;;4.63;0.53;;;2.20;99.90;;;;;;4941994;28;20042;-84
2022/02/25 00:17:36;;;;;;;5.80;0.60;;;2.10;99.90;;;;;;4921448;28;20061;-87
2022/02/25 00:20:03;;;;;;;5.50;0.70;;;2.10;99.90;;;;;;4967174;28;20046;-82
2022/02/25 00:22:29;;;;;;;4.43;0.93;;;2.10;99.90;;;;;;4946884;28;20030;-78
2022/02/25 00:25:07;;;;;;;5.10;0.80;;;2.10;99.90;;;;;;4957063;28;20034;-81
2022/02/25 00:27:35;;;;;;;5.70;0.63;;;2.10;99.90;;;;;;4953164;28;20516;-80
2022/02/25 00:30:02;;;;;;;5.63;1.00;;;2.10;99.90;;;;;;4957114;28;20037;-88
2022/02/25 00:32:29;;;;;;;3.97;0.63;;;2.10;99.90;;;;;;4944517;28;21449;-81
2022/02/25 00:34:56;;;;;;;4.50;0.70;;;2.00;99.90;;;;;;4943664;28;20053;-80
2022/02/25 00:37:22;;;;;;;8.40;0.93;;;2.00;99.90;;;;;;4986078;28;21528;-82
2022/02/25 00:39:49;;;;;;;6.23;0.90;;;2.00;99.90;;;;;;4974202;28;20351;-82
2022/02/25 00:42:15;;;;;;;3.97;0.50;;;2.00;99.90;;;;;;4956743;28;20031;-81
2022/02/25 00:44:44;;;;;;;8.43;1.10;;;2.00;99.90;;;;;;4990540;28;20045;-81
2022/02/25 00:47:11;;;;;;;6.23;0.80;;;2.00;99.90;;;;;;4972287;28;20049;-81
2022/02/25 00:49:39;;;;;;;7.87;0.60;;;2.10;99.90;;;;;;4959687;28;20034;-81
2022/02/25 00:52:06;;;;;;;5.33;0.80;;;2.20;99.90;;;;;;4956254;28;20038;-82
2022/02/25 00:54:39;;;;;;;6.67;1.13;;;2.30;99.90;;;;;;4969178;28;20060;-81
2022/02/25 00:57:07;;;;;;;5.03;0.50;;;2.40;99.90;;;;;;4957400;28;20045;-81
2022/02/25 00:59:50;;;;;;;5.17;0.70;;;2.50;99.90;;;;;;4939573;28;20046;-80
2022/02/25 01:02:20;;;;;;;6.65;0.45;;;2.60;99.90;;;;;;4959666;28;20034;-80
2022/02/25 01:04:47;;;;;;;9.20;0.97;;;2.60;99.90;;;;;;4939963;28;20049;-81
2022/02/25 01:07:14;;;;;;;8.77;0.80;;;2.60;99.90;;;;;;4972891;28;20058;-81
2022/02/25 01:09:40;;;;;;;5.47;0.63;;;2.60;99.90;;;;;;4970600;28;20030;-79
2022/02/25 01:12:07;;;;;;;4.30;0.40;;;2.60;99.90;;;;;;4955514;28;20032;-79
2022/02/25 01:14:34;;;;;;;6.70;0.67;;;2.60;99.90;;;;;;4967436;28;20034;-79
2022/02/25 01:17:01;;;;;;;8.17;1.13;;;2.50;99.90;;;;;;4951687;28;20030;-79
2022/02/25 01:19:27;;;;;;;7.80;0.60;;;2.40;99.90;;;;;;4967049;28;20042;-78
2022/02/25 01:21:54;;;;;;;6.23;0.90;;;2.30;99.90;;;;;;4956318;28;20862;-78
2022/02/25 01:24:20;;;;;;;6.40;0.57;;;2.30;99.90;;;;;;4954873;28;20043;-80
2022/02/25 01:26:47;;;;;;;5.97;0.63;;;2.30;99.90;;;;;;4956860;28;20043;-80
2022/02/25 01:29:13;;;;;;;7.23;0.73;;;2.20;99.90;;;;;;4964436;28;20393;-80
2022/02/25 01:31:43;;;;;;;5.27;0.50;;;2.20;99.90;;;;;;4957236;28;20053;-80
2022/02/25 01:34:09;;;;;;;5.47;0.50;;;2.20;99.90;;;;;;4968222;28;20047;-80
2022/02/25 01:36:36;;;;;;;4.13;0.70;;;2.10;99.90;;;;;;4986262;28;21975;-80
2022/02/25 01:39:06;;;;;;;8.63;0.90;;;2.10;99.90;;;;;;4966462;28;20449;-80
2022/02/25 01:41:32;;;;;;;4.17;0.50;;;2.10;99.90;;;;;;4987428;28;20112;-80
2022/02/25 01:44:18;;;;;;;4.63;0.50;;;2.10;99.90;;;;;;4971792;28;20045;-80
2022/02/25 01:47:00;;;;;;;6.77;0.70;;;2.00;99.90;;;;;;4967369;28;20385;-80
2022/02/25 01:49:28;;;;;;;3.67;0.73;;;2.00;99.90;;;;;;4987522;28;20029;-79
2022/02/25 01:51:57;;;;;;;10.50;1.03;;;2.00;99.90;;;;;;4974945;28;20418;-80
2022/02/25 01:54:24;;;;;;;6.07;0.80;;;2.00;99.90;;;;;;4940835;28;20027;-80
2022/02/25 01:56:53;;;;;;;5.80;0.67;;;2.00;99.90;;;;;;4958583;28;20061;-80
2022/02/25 01:59:19;;;;;;;6.77;0.80;;;1.90;99.90;;;;;;4944471;28;20038;-79
2022/02/25 02:01:46;;;;;;;7.00;0.80;;;1.90;99.90;;;;;;4985098;28;20396;-80
2022/02/25 02:04:14;;;;;;;6.30;0.77;;;1.90;99.90;;;;;;4953414;28;20114;-79
2022/02/25 02:06:40;;;;;;;7.10;1.00;;;1.90;99.90;;;;;;4989657;28;20477;-79
2022/02/25 02:09:09;;;;;;;9.20;1.00;;;1.90;99.90;;;;;;4987808;28;20493;-79
2022/02/25 02:11:37;;;;;;;5.10;1.20;;;1.90;99.90;;;;;;4995701;28;20038;-79
2022/02/25 02:14:07;;;;;;;6.43;1.27;;;1.90;99.90;;;;;;4977559;28;20888;-80
2022/02/25 02:16:34;;;;;;;8.37;1.60;;;1.80;99.90;;;;;;4959482;28;20034;-80
2022/02/25 02:19:01;;;;;;;4.60;1.03;;;1.90;99.90;;;;;;4988511;28;20056;-79
2022/02/25 02:21:31;;;;;;;10.43;1.90;;;1.90;99.90;;;;;;4989261;28;20038;-79
2022/02/25 02:24:01;;;;;;;12.07;2.00;;;1.80;99.90;;;;;;4973442;28;20015;-79
2022/02/25 02:26:29;;;;;;;7.43;1.83;;;1.80;99.90;;;;;;4987574;28;20038;-79
2022/02/25 02:28:56;;;;;;;8.90;1.80;;;1.80;99.90;;;;;;4952789;28;20039;-80
2022/02/25 02:31:23;;;;;;;13.97;2.67;;;1.80;99.90;;;;;;4991485;28;20042;-79
2022/02/25 02:33:50;;;;;;;11.13;1.70;;;1.80;99.90;;;;;;4971690;28;20034;-79
2022/02/25 02:36:17;;;;;;;6.23;2.10;;;1.80;99.90;;;;;;4973355;28;20092;-79
2022/02/25 02:38:44;;;;;;;6.43;1.90;;;1.90;99.90;;;;;;4951245;28;20043;-79
2022/02/25 02:41:11;;;;;;;12.07;2.57;;;1.80;99.90;;;;;;4988717;28;20478;-79
2022/02/25 02:43:37;;;;;;;12.70;2.57;;;1.80;99.90;;;;;;4975384;28;20034;-79
2022/02/25 02:46:05;;;;;;;9.93;2.27;;;1.90;99.90;;;;;;4977255;28;20038;-79
2022/02/25 02:48:33;;;;;;;9.37;1.60;;;1.90;99.90;;;;;;4955771;28;20021;-80
2022/02/25 02:51:00;;;;;;;7.63;1.80;;;1.90;99.90;;;;;;4973380;28;20394;-79
2022/02/25 02:53:26;;;;;;;6.70;2.03;;;1.90;99.90;;;;;;4938538;28;20027;-79
2022/02/25 02:55:53;;;;;;;7.53;1.30;;;1.90;99.90;;;;;;4950559;28;20049;-79
2022/02/25 02:58:19;;;;;;;14.70;2.87;;;1.80;99.90;;;;;;4954324;28;20513;-79
2022/02/25 03:00:49;;;;;;;15.70;1.70;;;1.80;99.90;;;;;;4988907;28;20033;-79
2022/02/25 03:03:15;;;;;;;8.50;2.33;;;1.80;99.90;;;;;;4941880;28;20026;-79
2022/02/25 03:05:44;;;;;;;7.87;2.00;;;1.80;99.90;;;;;;4978993;28;20034;-79
2022/02/25 03:08:11;;;;;;;12.10;2.57;;;1.90;99.90;;;;;;4939872;28;20058;-79
2022/02/25 03:10:39;;;;;;;14.50;2.90;;;1.80;99.90;;;;;;4972268;28;20038;-79
2022/02/25 03:13:06;;;;;;;12.03;2.80;;;1.80;99.90;;;;;;4970798;28;20604;-79
2022/02/25 03:15:33;;;;;;;10.53;3.07;;;1.80;99.90;;;;;;4957390;28;20057;-80
2022/02/25 03:18:00;;;;;;;6.37;1.73;;;1.80;99.90;;;;;;4953566;28;20034;-79
2022/02/25 03:20:27;;;;;;;7.60;2.17;;;1.80;99.90;;;;;;4944139;28;20054;-80
2022/02/25 03:22:55;;;;;;;7.73;1.97;;;1.80;99.90;;;;;;4972945;28;20425;-79
2022/02/25 03:25:21;;;;;;;11.03;2.60;;;1.80;99.90;;;;;;4991191;28;20035;-79
2022/02/25 03:27:48;;;;;;;7.67;2.10;;;1.80;99.90;;;;;;4986462;28;20025;-79
2022/02/25 03:30:15;;;;;;;5.83;1.50;;;1.80;99.90;;;;;;4973963;28;20045;-79
2022/02/25 03:32:42;;;;;;;9.30;2.27;;;1.80;99.90;;;;;;4969262;28;20026;-79
2022/02/25 03:35:11;;;;;;;9.67;2.70;;;1.80;99.90;;;;;;4970665;28;20038;-79
2022/02/25 03:37:38;;;;;;;8.37;2.27;;;1.80;99.90;;;;;;4986998;28;20045;-79
2022/02/25 03:40:06;;;;;;;11.37;2.47;;;1.80;99.90;;;;;;4971831;28;20042;-79
2022/02/25 03:42:33;;;;;;;7.07;1.73;;;1.80;99.90;;;;;;4987328;28;20383;-79
2022/02/25 03:45:00;;;;;;;10.60;1.93;;;1.80;99.90;;;;;;4970614;28;20034;-79
2022/02/25 03:47:26;;;;;;;12.17;2.40;;;1.80;99.90;;;;;;4969975;28;20065;-78
2022/02/25 03:49:53;;;;;;;13.77;2.63;;;1.90;99.90;;;;;;4971355;28;20042;-79
2022/02/25 03:52:19;;;;;;;8.97;1.30;;;1.90;99.90;;;;;;4945505;28;20046;-80
2022/02/25 03:54:46;;;;;;;7.77;1.57;;;1.90;99.90;;;;;;4973111;28;20498;-80
2022/02/25 03:57:12;;;;;;;11.37;2.73;;;1.90;99.90;;;;;;4986242;28;20038;-80
2022/02/25 03:59:38;;;;;;;10.83;2.17;;;1.80;99.90;;;;;;4961285;28;20030;-80
2022/02/25 04:02:05;;;;;;;10.13;2.00;;;1.80;99.90;;;;;;4959265;28;20034;-80
2022/02/25 04:04:32;;;;;;;9.63;1.70;;;1.80;99.90;;;;;;4969723;28;20414;-79
2022/02/25 04:06:58;;;;;;;10.53;1.70;;;1.80;99.90;;;;;;4927762;28;20042;-79
2022/02/25 04:09:25;;;;;;;11.13;1.37;;;1.80;99.90;;;;;;4967669;28;20046;-79
2022/02/25 04:11:53;;;;;;;9.77;2.43;;;1.80;99.90;;;;;;4970643;28;20038;-79
2022/02/25 04:14:20;;;;;;;13.13;1.90;;;1.80;99.90;;;;;;4974263;28;20025;-79
2022/02/25 04:16:48;;;;;;;8.60;1.90;;;1.80;99.90;;;;;;4974912;28;20038;-79
2022/02/25 04:19:16;;;;;;;7.47;1.30;;;1.80;99.90;;;;;;4967814;28;20379;-79
2022/02/25 04:21:44;;;;;;;9.43;1.67;;;1.80;99.90;;;;;;4968627;28;20025;-79
2022/02/25 04:24:11;;;;;;;8.57;1.50;;;1.80;99.90;;;;;;4973267;28;20497;-79
2022/02/25 04:26:38;;;;;;;9.20;1.67;;;1.80;99.90;;;;;;4973622;28;20037;-78
2022/02/25 04:29:05;;;;;;;9.27;1.37;;;1.80;99.90;;;;;;4971337;28;20029;-79
2022/02/25 04:31:32;;;;;;;12.37;2.03;;;1.80;99.90;;;;;;4957120;28;20053;-79
2022/02/25 04:33:58;;;;;;;12.23;2.20;;;1.80;99.90;;;;;;4955112;28;20413;-79
2022/02/25 04:36:24;;;;;;;11.80;2.10;;;1.80;99.90;;;;;;4961211;28;20038;-80
2022/02/25 04:38:52;;;;;;;14.53;2.07;;;1.80;99.90;;;;;;4954654;28;20044;-80
2022/02/25 04:41:19;;;;;;;11.60;1.60;;;1.80;99.90;;;;;;4977491;28;20029;-80
2022/02/25 04:43:46;;;;;;;12.73;2.20;;;1.80;99.90;;;;;;4972137;28;20014;-80
2022/02/25 04:46:21;;;;;;;9.03;1.47;;;1.80;99.90;;;;;;4968313;28;20421;-79
2022/02/25 04:48:47;;;;;;;10.27;2.07;;;1.80;99.90;;;;;;4983565;28;20037;-80
2022/02/25 04:51:18;;;;;;;9.33;1.30;;;1.80;99.90;;;;;;4959659;28;20042;-80
2022/02/25 04:53:46;;;;;;;13.10;1.70;;;1.80;99.90;;;;;;4942222;28;20030;-80
2022/02/25 04:56:13;;;;;;;13.10;2.70;;;1.90;99.90;;;;;;4956170;28;20030;-80
2022/02/25 04:58:40;;;;;;;10.17;1.60;;;1.80;99.90;;;;;;4949954;28;20050;-80
2022/02/25 05:01:07;;;;;;;11.47;1.93;;;1.80;99.90;;;;;;4972359;28;20022;-79
2022/02/25 05:03:33;;;;;;;7.93;1.67;;;1.80;99.90;;;;;;4975292;28;20033;-79
2022/02/25 05:06:01;;;;;;;9.80;2.07;;;1.80;99.90;;;;;;4990451;28;20026;-79
2022/02/25 05:08:27;;;;;;;13.97;2.47;;;1.80;99.90;;;;;;4954538;28;20022;-79
2022/02/25 05:10:54;;;;;;;13.77;2.43;;;1.80;99.90;;;;;;4984292;28;20034;-79
2022/02/25 05:13:20;;;;;;;11.77;1.70;;;1.80;99.90;;;;;;4956812;28;20038;-79
2022/02/25 05:21:18;;;;;;;13.03;2.00;;;1.80;99.90;;;;;;4975571;28;20485;-79
2022/02/25 05:23:45;;;;;;;16.97;1.77;;;1.80;99.90;;;;;;4972820;28;20373;-79
2022/02/25 05:26:11;;;;;;;11.57;2.07;;;1.80;99.90;;;;;;4985753;28;20493;-79
2022/02/25 05:28:39;;;;;;;13.97;2.20;;;1.80;99.90;;;;;;4982000;28;20416;-80
2022/02/25 05:31:06;;;;;;;10.53;1.63;;;1.80;99.90;;;;;;4959670;28;20042;-79
2022/02/25 05:33:33;;;;;;;15.77;2.17;;;1.80;99.90;;;;;;4956368;28;20037;-79
2022/02/25 05:36:00;;;;;;;24.50;2.63;;;1.80;99.90;;;;;;4943361;28;20045;-79
2022/02/25 05:38:26;;;;;;;20.70;2.70;;;1.90;99.90;;;;;;4986083;28;20046;-79
2022/02/25 05:40:53;;;;;;;11.53;1.30;;;1.90;99.90;;;;;;4971906;28;20889;-80
2022/02/25 05:43:20;;;;;;;19.47;1.83;;;2.00;99.90;;;;;;4972019;28;20038;-79
2022/02/25 05:45:49;;;;;;;13.23;1.70;;;2.00;99.90;;;;;;4955339;28;20030;-79
2022/02/25 05:48:15;;;;;;;18.33;2.20;;;2.10;99.90;;;;;;4958650;28;20038;-80
2022/02/25 05:50:42;;;;;;;17.77;2.70;;;2.10;99.90;;;;;;4958355;28;20042;-80
2022/02/25 05:53:08;;;;;;;16.60;2.17;;;2.20;99.90;;;;;;4957821;28;20425;-79
2022/02/25 05:55:35;;;;;;;13.30;2.07;;;2.20;99.90;;;;;;4956685;28;20042;-79
2022/02/25 05:58:01;;;;;;;20.27;2.50;;;2.20;99.90;;;;;;4973906;28;20039;-79
2022/02/25 06:00:28;;;;;;;16.43;2.33;;;2.20;99.90;;;;;;4959072;28;20026;-79
2022/02/25 06:02:55;;;;;;;15.00;2.57;;;2.20;99.90;;;;;;4992136;28;20041;-79
2022/02/25 06:05:21;;;;;;;16.00;1.93;;;2.20;99.90;;;;;;4958136;28;20030;-79
2022/02/25 06:07:48;;;;;;;11.63;1.60;;;2.20;99.90;;;;;;4961543;28;20026;-79
2022/02/25 06:10:14;;;;;;;10.00;1.70;;;2.20;99.90;;;;;;4993206;28;20045;-79
2022/02/25 06:12:41;;;;;;;12.20;1.67;;;2.30;99.90;;;;;;4988839;28;20026;-79
2022/02/25 06:15:09;;;;;;;11.40;1.63;;;2.40;99.90;;;;;;4991535;28;20053;-79
2022/02/25 06:17:43;;;;;;;12.10;1.57;;;2.50;99.90;;;;;;4981610;28;20026;-79
2022/02/25 06:20:10;;;;;;;18.87;1.77;;;2.60;99.90;;;;;;4957065;28;20069;-79
2022/02/25 06:22:36;;;;;;;17.57;2.43;;;2.60;99.90;;;;;;4959485;28;20022;-79
2022/02/25 06:25:03;;;;;;;17.17;2.20;;;2.80;99.90;;;;;;4989046;28;20019;-79
2022/02/25 06:27:30;;;;;;;17.57;2.90;;;2.80;99.90;;;;;;4956293;28;21563;-78
2022/02/25 06:29:56;;;;;;;13.63;2.07;;;2.80;99.90;;;;;;4971213;28;20042;-78
2022/02/25 06:32:25;;;;;;;24.73;2.10;;;2.90;99.90;;;;;;4942734;28;20088;-78
2022/02/25 06:34:59;;;;;;;11.53;1.93;;;2.90;99.90;;;;;;4993730;28;20042;-78
2022/02/25 06:37:28;;;;;;;20.80;2.50;;;2.90;99.90;;;;;;4988725;28;20038;-78
2022/02/25 06:39:56;;;;;;;20.60;2.27;;;2.90;99.90;;;;;;4984230;28;20029;-78
2022/02/25 06:42:22;;;;;;;19.70;2.33;;;3.00;99.90;;;;;;4991128;28;20034;-79
2022/02/25 06:44:50;;;;;;;19.40;2.23;;;3.00;99.90;;;;;;4988312;28;20026;-79
2022/02/25 06:47:18;;;;;;;17.30;2.27;;;3.00;99.90;;;;;;4989689;28;20679;-78
2022/02/25 06:49:54;;;;;;;15.37;2.10;;;3.10;99.90;;;;;;4989913;28;20027;-78
2022/02/25 06:52:21;;;;;;;23.10;2.37;;;3.10;99.90;;;;;;4945937;28;20050;-78
2022/02/25 06:54:47;;;;;;;17.07;2.03;;;3.10;99.90;;;;;;4953399;28;20039;-79
2022/02/25 06:57:15;;;;;;;17.10;1.83;;;3.20;99.90;;;;;;4989227;28;20043;-78
2022/02/25 06:59:41;;;;;;;23.10;2.53;;;3.20;99.90;;;;;;4960324;28;20021;-79
2022/02/25 07:02:14;;;;;;;20.57;3.37;;;3.20;99.90;;;;;;4975794;28;20479;-78
2022/02/25 07:04:44;;;;;;;;;;;3.30;99.90;;;;;;4972338;28;20042;-78
2022/02/25 07:07:11;;;;;;;13.57;2.00;;;3.30;99.90;;;;;;4988573;28;19925;-79
2022/02/25 07:09:40;;;;;;;18.17;3.53;;;3.30;99.90;;;;;;4974602;28;20037;-78
2022/02/25 07:12:13;;;;;;;9.60;2.10;;;3.30;99.90;;;;;;4993177;28;20046;-78
2022/02/25 07:14:41;;;;;;;11.93;1.80;;;3.30;99.90;;;;;;4992970;28;20014;-78
2022/02/25 07:17:12;;;;;;;17.77;2.37;;;3.40;99.90;;;;;;4993950;28;20481;-78
2022/02/25 07:19:45;;;;;;;10.90;1.97;;;3.40;99.90;;;;;;4990662;28;20047;-78
2022/02/25 07:22:12;;;;;;;14.80;2.13;;;3.40;99.90;;;;;;4990586;28;20030;-79
2022/02/25 07:24:40;;;;;;;17.73;2.17;;;3.50;99.90;;;;;;4969084;28;20038;-79
2022/02/25 07:27:10;;;;;;;18.07;2.80;;;3.50;99.90;;;;;;4970190;28;20049;-78
2022/02/25 07:29:40;;;;;;;11.97;2.60;;;3.50;99.90;;;;;;4990540;28;20393;-78
2022/02/25 07:32:06;;;;;;;17.10;3.50;;;3.50;99.90;;;;;;4991652;28;20033;-77
2022/02/25 07:34:33;;;;;;;15.13;3.20;;;3.60;99.90;;;;;;4985885;28;20039;-79
2022/02/25 07:36:59;;;;;;;16.47;2.07;;;3.60;99.90;;;;;;4973663;28;20034;-79
2022/02/25 07:39:26;;;;;;;19.60;5.10;;;3.70;99.90;;;;;;4970894;28;20489;-81
2022/02/25 07:41:52;;;;;;;14.77;2.57;;;3.80;99.90;;;;;;4988349;28;20027;-83
2022/02/25 07:44:21;;;;;;;22.17;3.13;;;3.70;99.90;;;;;;4972546;28;20041;-81
2022/02/25 07:46:47;;;;;;;12.47;2.70;;;3.70;99.90;;;;;;4991439;28;20042;-82
2022/02/25 07:49:14;;;;;;;15.13;3.40;;;3.80;99.90;;;;;;4958586;28;20494;-81
2022/02/25 07:51:40;;;;;;;15.50;2.53;;;3.90;99.90;;;;;;4950297;28;20054;-79
2022/02/25 07:54:07;;;;;;;11.33;1.83;;;3.90;99.90;;;;;;4970688;28;20031;-84
2022/02/25 07:56:40;;;;;;;11.33;2.40;;;4.00;99.90;;;;;;4974049;28;20517;-84
2022/02/25 07:59:06;;;;;;;14.68;1.48;;;4.10;99.90;;;;;;4940320;28;20038;-85
2022/02/25 08:01:33;;;;;;;20.60;3.10;;;4.10;99.90;;;;;;4959371;28;20498;-85
2022/02/25 08:03:59;;;;;;;13.93;2.00;;;4.10;99.90;;;;;;4984431;28;20030;-81
2022/02/25 08:06:28;;;;;;;19.27;3.63;;;4.20;99.90;;;;;;4928042;28;20042;-82
2022/02/25 08:08:54;;;;;;;14.47;1.90;;;4.30;99.90;;;;;;4968748;28;20719;-86
2022/02/25 08:11:21;;;;;;;24.00;3.08;;;4.40;99.90;;;;;;4987986;28;20042;-83
2022/02/25 08:13:47;;;;;;;16.97;1.93;;;4.40;99.90;;;;;;4970070;28;20041;-80
2022/02/25 08:16:14;;;;;;;14.50;2.87;;;4.50;99.90;;;;;;4988281;28;20038;-79
2022/02/25 08:18:40;;;;;;;17.03;2.30;;;4.60;99.90;;;;;;4966174;28;20504;-79
2022/02/25 08:21:07;;;;;;;16.90;2.17;;;4.70;99.90;;;;;;4985440;28;20481;-79
2022/02/25 08:23:33;;;;;;;18.70;3.23;;;4.80;99.90;;;;;;4968153;28;20063;-78
2022/02/25 08:26:00;;;;;;;16.63;1.97;;;4.90;99.90;;;;;;4986345;28;20458;-80
2022/02/25 08:28:27;;;;;;;15.20;3.03;;;5.00;99.90;;;;;;4967157;28;20018;-78
2022/02/25 08:30:53;;;;;;;13.07;1.65;;;5.10;99.90;;;;;;4975110;28;20046;-78
2022/02/25 08:33:20;;;;;;;12.90;1.30;;;5.20;99.90;;;;;;4975086;28;20046;-78
2022/02/25 08:35:47;;;;;;;15.50;2.83;;;5.20;99.90;;;;;;4970443;28;20370;-79
2022/02/25 08:38:17;;;;;;;16.23;1.97;;;5.30;99.90;;;;;;4966400;28;20385;-79
2022/02/25 08:40:45;;;;;;;26.83;2.03;;;5.40;99.90;;;;;;4987334;28;20022;-78
2022/02/25 08:43:12;;;;;;;17.73;1.87;;;5.50;99.90;;;;;;4988251;28;20033;-78
2022/02/25 08:45:41;;;;;;;16.83;2.40;;;5.60;99.90;;;;;;4970188;28;20026;-80
2022/02/25 08:48:11;;;;;;;16.35;1.58;;;5.70;99.90;;;;;;4936982;28;20025;-78
2022/02/25 08:50:38;;;;;;;10.73;1.30;;;5.70;99.90;;;;;;4987347;28;20018;-77
2022/02/25 08:53:04;;;;;;;18.42;2.22;;;5.90;99.90;;;;;;4985116;28;20034;-77
2022/02/25 08:55:31;;;;;;;10.85;1.67;;;6.00;99.90;;;;;;4986897;28;20029;-77
2022/02/25 08:57:57;;;;;;;13.13;2.00;;;6.00;99.90;;;;;;4969199;28;20046;-77
2022/02/25 09:00:25;;;;;;;13.13;1.42;;;6.00;99.90;;;;;;4988430;28;20025;-78
2022/02/25 09:02:53;;;;;;;18.63;1.48;;;6.10;99.90;;;;;;4988354;28;20405;-78
2022/02/25 09:05:21;;;;;;;14.75;1.55;;;6.10;99.90;;;;;;4988527;28;20030;-78
2022/02/25 09:07:49;;;;;;;12.90;1.33;;;6.30;99.90;;;;;;4987300;28;20036;-78
2022/02/25 09:10:15;;;;;;;13.40;1.58;;;6.40;99.90;;;;;;4988326;28;20037;-78
2022/02/25 09:12:42;;;;;;;14.77;1.88;;;6.60;99.90;;;;;;4974254;28;20026;-78
2022/02/25 09:15:11;;;;;;;14.18;1.52;;;6.80;99.90;;;;;;4971215;28;20029;-78
2022/02/25 09:17:38;;;;;;;17.48;2.22;;;7.00;99.90;;;;;;4987646;28;20417;-78
2022/02/25 09:20:07;;;;;;;15.02;1.48;;;7.10;99.90;;;;;;4989112;28;20391;-79
2022/02/25 09:22:34;;;;;;;17.73;1.65;;;7.20;99.90;;;;;;4986220;28;20022;-78
2022/02/25 09:25:00;;;;;;;16.38;1.67;;;7.30;99.90;;;;;;4986836;28;20011;-78
2022/02/25 09:27:28;;;;;;;12.82;1.75;;;7.30;99.90;;;;;;4985805;28;20029;-78
2022/02/25 09:29:55;;;;;;;11.68;1.20;;;7.50;99.90;;;;;;4972857;28;20026;-77
2022/02/25 09:32:22;;;;;;;26.15;2.22;;;7.60;99.90;;;;;;4986173;28;20037;-77
2022/02/25 09:34:48;;;;;;;14.35;1.80;;;7.80;99.90;;;;;;4988042;28;20022;-78
2022/02/25 09:37:15;;;;;;;13.93;1.35;;;7.80;99.90;;;;;;4952732;28;20123;-81
2022/02/25 09:39:41;;;;;;;16.75;1.83;;;7.90;99.90;;;;;;4970672;28;20035;-78
2022/02/25 09:42:09;;;;;;;15.05;1.02;;;7.90;99.90;;;;;;4982942;28;20022;-79
2022/02/25 09:44:36;;;;;;;11.63;1.80;;;7.90;99.90;;;;;;4944128;28;20030;-78
2022/02/25 09:47:03;;;;;;;15.07;1.42;;;7.90;99.90;;;;;;4963416;28;20026;-76
2022/02/25 09:49:29;;;;;;;10.40;1.40;;;7.80;99.90;;;;;;4953596;28;20034;-75
2022/02/25 09:51:56;;;;;;;11.65;1.23;;;7.60;99.90;;;;;;4977367;28;20110;-77
2022/02/25 09:54:24;;;;;;;18.63;2.45;;;7.40;99.90;;;;;;4933661;28;20398;-76
2022/02/25 09:56:50;;;;;;;11.38;1.08;;;7.10;99.90;;;;;;4978099;28;20022;-78
2022/02/25 09:59:17;;;;;;;12.35;1.30;;;7.00;99.90;;;;;;4947854;28;20121;-80
2022/02/25 10:01:44;;;;;;;8.70;1.05;;;6.90;99.90;;;;;;4976124;28;20022;-81
2022/02/25 10:04:17;;;;;;;9.90;1.40;;;6.90;99.90;;;;;;4944162;28;20369;-79
2022/02/25 10:06:44;;;;;;;9.68;1.08;;;6.90;99.90;;;;;;4980255;28;20023;-79
2022/02/25 10:09:33;;;;;;;12.00;1.75;;;6.90;99.90;;;;;;4976052;28;20451;-79
2022/02/25 10:12:05;;;;;;;17.35;1.80;;;6.90;99.90;;;;;;4961733;28;20678;-77
2022/02/25 10:14:40;;;;;;;19.90;1.75;;;6.90;99.90;;;;;;4976098;28;20026;-78
2022/02/25 10:17:08;;;;;;;10.13;1.40;;;7.00;99.90;;;;;;4979512;28;20033;-80
2022/02/25 10:19:35;;;;;;;14.38;1.40;;;7.20;99.90;;;;;;4960635;28;20046;-80
2022/02/25 10:22:18;;;;;;;12.10;1.40;;;7.40;99.90;;;;;;4980030;28;20033;-79
2022/02/25 10:24:51;;;;;;;19.45;1.92;;;7.60;99.90;;;;;;4978403;28;20076;-79
2022/02/25 10:27:28;;;;;;;16.10;1.50;;;7.80;99.90;;;;;;4963705;28;20616;-80
2022/02/25 10:30:06;;;;;;;12.43;1.65;;;7.90;99.90;;;;;;4983230;28;20030;-79
2022/02/25 10:32:36;;;;;;;15.68;1.73;;;8.20;99.90;;;;;;4960718;28;20034;-79
2022/02/25 10:35:29;;;;;;;11.95;1.65;;;8.30;99.90;;;;;;4982440;28;20022;-79
2022/02/25 10:38:11;;;;;;;12.52;1.52;;;8.30;99.90;;;;;;4962709;28;20022;-80
2022/02/25 10:40:44;;;;;;;13.02;1.20;;;8.20;99.90;;;;;;4966000;28;20035;-80
2022/02/25 10:43:19;;;;;;;16.20;1.63;;;8.00;99.90;;;;;;4963564;28;20030;-82
2022/02/25 10:45:54;;;;;;;15.23;1.88;;;7.90;99.90;;;;;;4937185;28;20034;-81
2022/02/25 10:48:31;;;;;;;11.27;1.30;;;7.80;99.90;;;;;;4951287;28;20034;-81
2022/02/25 10:50:58;;;;;;;14.02;1.60;;;7.70;99.90;;;;;;4984567;28;20025;-82
2022/02/25 10:53:49;;;;;;;9.65;1.50;;;7.70;99.90;;;;;;4983626;28;20026;-81
2022/02/25 10:56:18;;;;;;;10.93;1.58;;;7.60;99.90;;;;;;4944095;28;20034;-80
2022/02/25 10:58:55;;;;;;;18.30;2.08;;;7.50;99.90;;;;;;4942229;28;20042;-81
2022/02/25 11:01:33;;;;;;;14.63;2.05;;;7.40;99.90;;;;;;4983614;28;20042;-82
2022/02/25 11:04:07;;;;;;;12.63;1.40;;;7.20;99.90;;;;;;4983159;28;20025;-83
2022/02/25 11:06:34;;;;;;;11.57;0.98;;;6.90;99.90;;;;;;4951446;28;20370;-81
2022/02/25 11:09:02;;;;;;;13.35;1.40;;;6.80;99.90;;;;;;4980434;28;20671;-81
2022/02/25 11:11:29;;;;;;;10.00;0.95;;;6.60;99.90;;;;;;4969176;28;20053;-80
2022/02/25 11:13:57;;;;;;;12.35;2.03;;;6.50;99.90;;;;;;4965467;28;20102;-79
2022/02/25 11:16:26;;;;;;;14.15;2.05;;;6.60;99.90;;;;;;4982256;28;20409;-79
2022/02/25 11:18:54;;;;;;;19.83;1.92;;;6.60;99.90;;;;;;4964241;28;20022;-79
2022/02/25 11:21:21;;;;;;;12.45;2.10;;;6.60;99.90;;;;;;4983956;28;20402;-80
2022/02/25 11:23:48;;;;;;;14.52;2.42;;;6.60;99.90;;;;;;4981004;28;20033;-80
2022/02/25 11:26:17;;;;;;;11.63;1.15;;;6.70;99.90;;;;;;4984565;28;20494;-80
2022/02/25 11:28:44;;;;;;;14.50;1.58;;;6.70;99.90;;;;;;4949524;28;20042;-79
2022/02/25 11:31:18;;;;;;;17.45;2.08;;;6.70;99.90;;;;;;4964967;28;20025;-79
2022/02/25 11:33:53;;;;;;;10.18;1.67;;;6.70;99.90;;;;;;4967993;28;20022;-79
2022/02/25 11:36:40;;;;;;;12.85;1.50;;;6.70;99.90;;;;;;4988144;28;20067;-79
2022/02/25 11:39:29;;;;;;;8.88;0.80;;;6.70;99.90;;;;;;4983652;28;20042;-79
2022/02/25 11:42:01;;;;;;;9.55;1.05;;;6.70;99.90;;;;;;4972317;28;20030;-81
2022/02/25 11:44:29;;;;;;;10.82;1.08;;;6.70;99.90;;;;;;4960204;28;20049;-80
2022/02/25 11:46:56;;;;;;;14.13;1.40;;;6.60;99.90;;;;;;4955077;28;20030;-80
2022/02/25 11:49:26;;;;;;;14.52;1.42;;;6.60;99.90;;;;;;4967726;28;20023;-80
2022/02/25 11:51:52;;;;;;;10.40;0.90;;;6.70;99.90;;;;;;4955395;28;20042;-79
2022/02/25 11:54:48;;;;;;;12.00;1.38;;;6.90;99.90;;;;;;4965046;28;20038;-82
2022/02/25 11:57:15;;;;;;;13.50;1.30;;;7.10;99.90;;;;;;4952509;28;20034;-80
2022/02/25 11:59:41;;;;;;;20.48;1.88;;;7.10;99.90;;;;;;4983050;28;20038;-80
2022/02/25 12:02:35;;;;;;;13.80;1.42;;;7.10;99.90;;;;;;4953264;28;20493;-81
2022/02/25 12:05:04;;;;;;;12.75;1.08;;;6.80;99.90;;;;;;4967790;28;20038;-80
2022/02/25 12:07:32;;;;;;;8.88;1.00;;;6.50;99.90;;;;;;4951594;28;20034;-80
2022/02/25 12:10:00;;;;;;;12.95;1.95;;;6.40;99.90;;;;;;4950284;28;20050;-80
2022/02/25 12:12:26;;;;;;;14.02;1.75;;;6.60;99.90;;;;;;4983547;28;20030;-80
2022/02/25 12:14:59;;;;;;;12.43;2.15;;;7.30;99.90;;;;;;4983752;28;20034;-81
2022/02/25 12:17:41;;;;;;;15.02;1.75;;;8.10;99.90;;;;;;4954453;28;20034;-80
2022/02/25 12:20:26;;;;;;;15.90;2.27;;;8.90;99.90;;;;;;4982170;28;20054;-82
2022/02/25 12:23:02;;;;;;;14.52;1.67;;;9.70;99.90;;;;;;4967028;28;20033;-81
2022/02/25 12:25:43;;;;;;;19.63;1.83;;;10.50;99.90;;;;;;4970983;28;21254;-80
2022/02/25 12:28:34;;;;;;;17.52;2.35;;;10.70;99.90;;;;;;4982743;28;20130;-78
2022/02/25 12:31:13;;;;;;;14.57;1.60;;;10.30;99.90;;;;;;4969822;28;20026;-79
2022/02/25 12:33:44;;;;;;;13.43;1.38;;;9.90;99.90;;;;;;4968532;28;20474;-82
2022/02/25 12:36:35;;;;;;;10.82;1.30;;;9.40;99.90;;;;;;4985683;28;20030;-78
2022/02/25 12:39:35;;;;;;;13.60;2.10;;;9.00;99.90;;;;;;4985322;28;20046;-82
2022/02/25 12:42:10;;;;;;;18.52;2.85;;;9.30;99.90;;;;;;4967355;28;20038;-84
2022/02/25 12:44:43;;;;;;;15.90;2.92;;;9.80;99.90;;;;;;4985071;28;20363;-81
2022/02/25 12:47:17;;;;;;;17.63;2.33;;;10.60;99.90;;;;;;4982924;28;20405;-84
2022/02/25 12:49:45;;;;;;;11.13;1.33;;;11.50;99.90;;;;;;4983767;28;20026;-83
2022/02/25 12:52:13;;;;;;;9.20;1.38;;;12.10;99.90;;;;;;4967062;28;20394;-82
2022/02/25 12:54:41;;;;;;;15.15;2.05;;;12.50;99.90;;;;;;4966951;28;20039;-82
2022/02/25 12:57:11;;;;;;;20.75;2.17;;;12.70;99.90;;;;;;4965232;28;20019;-83
2022/02/25 12:59:44;;;;;;;12.77;1.75;;;13.00;99.90;;;;;;4962996;28;20046;-83
2022/02/25 13:02:14;;;;;;;12.48;2.15;;;13.50;99.90;;;;;;4967293;28;20025;-83
2022/02/25 13:04:46;;;;;;;12.23;1.48;;;14.00;99.90;;;;;;4962852;28;20466;-83
2022/02/25 13:07:15;;;;;;;9.95;1.75;;;14.50;99.90;;;;;;4982985;28;20034;-83